Time;durP1;ratioP1;P1;durP2;ratioP2;P2;SDS_P1;SDS_P2;PMS_P1;PMS_P2;Temp;Humidity;BMP_temperature;BMP_pressure;BME280_temperature;BME280_humidity;BME280_pressure;Samples;Min_cycle;Max_cycle;Signal;HPM_P1;HPM_P2
2024/01/29 00:02:16;;;;;;;34.78;22.48;;;;;;;4.15;71.42;102516.03;5088693;28;20062;-75
2024/01/29 00:04:42;;;;;;;35.05;20.92;;;;;;;4.09;71.56;102503.75;5092466;28;20059;-76
2024/01/29 00:07:07;;;;;;;30.25;19.38;;;;;;;4.20;71.55;102520.31;5095509;28;20051;-76
2024/01/29 00:09:33;;;;;;;34.95;21.63;;;;;;;4.24;71.45;102516.66;5090033;28;20032;-77
2024/01/29 00:11:58;;;;;;;33.15;20.85;;;;;;;4.27;71.51;102523.69;5087770;28;20530;-76
2024/01/29 00:14:24;;;;;;;31.88;21.50;;;;;;;4.35;71.30;102519.03;5087747;28;20128;-76
2024/01/29 00:16:49;;;;;;;35.10;20.45;;;;;;;4.21;71.27;102519.41;5087184;28;20024;-78
2024/01/29 00:19:15;;;;;;;32.40;20.52;;;;;;;3.92;72.11;102508.56;5087084;28;20505;-74
2024/01/29 00:21:40;;;;;;;27.00;17.52;;;;;;;3.99;71.69;102510.19;5069198;28;20097;-76
2024/01/29 00:24:06;;;;;;;29.52;19.08;;;;;;;3.96;71.99;102515.59;5087508;28;20032;-76
2024/01/29 00:26:31;;;;;;;31.40;19.05;;;;;;;3.95;72.31;102519.16;5087153;28;20036;-76
2024/01/29 00:28:57;;;;;;;34.42;21.48;;;;;;;3.88;72.53;102514.91;5087329;28;20028;-75
2024/01/29 00:31:23;;;;;;;34.25;19.38;;;;;;;3.78;72.46;102494.72;5069263;28;20024;-76
2024/01/29 00:33:49;;;;;;;31.65;19.73;;;;;;;3.91;72.57;102533.47;5087095;28;20102;-75
2024/01/29 00:36:15;;;;;;;28.88;18.77;;;;;;;3.78;72.74;102542.63;5068783;28;20044;-76
2024/01/29 00:38:41;;;;;;;30.67;19.17;;;;;;;3.75;73.03;102518.75;5087460;28;20040;-75
2024/01/29 00:41:06;;;;;;;30.33;19.77;;;;;;;3.69;73.07;102516.22;5091262;28;20511;-75
2024/01/29 00:43:32;;;;;;;33.63;19.42;;;;;;;3.55;73.34;102508.53;5087639;28;20402;-76
2024/01/29 00:45:58;;;;;;;35.08;21.50;;;;;;;3.57;73.41;102501.44;5069896;28;20165;-76
2024/01/29 00:48:25;;;;;;;31.05;18.95;;;;;;;3.62;73.21;102510.16;5088305;28;20073;-75
2024/01/29 00:50:53;;;;;;;34.53;19.65;;;;;;;3.62;73.77;102515.50;5089654;28;20073;-75
2024/01/29 00:53:18;;;;;;;33.05;19.35;;;;;;;3.60;73.90;102512.00;5076274;28;20024;-78
2024/01/29 00:55:45;;;;;;;29.45;19.65;;;;;;;3.62;73.49;102520.81;5100192;28;20097;-76
2024/01/29 00:58:12;;;;;;;33.30;18.90;;;;;;;3.41;73.28;102488.50;5093611;28;20036;-74
2024/01/29 01:00:38;;;;;;;37.17;20.08;;;;;;;3.64;73.98;102523.47;5090919;28;20075;-75
2024/01/29 01:03:05;;;;;;;32.35;21.13;;;;;;;3.65;73.98;102511.88;5072520;28;20506;-75
2024/01/29 01:05:31;;;;;;;31.75;19.48;;;;;;;3.67;73.62;102526.03;5090816;28;20453;-77
2024/01/29 01:07:56;;;;;;;32.97;20.05;;;;;;;3.67;73.71;102512.75;5090881;28;20020;-74
2024/01/29 01:10:22;;;;;;;38.28;21.92;;;;;;;3.65;73.34;102514.53;5090759;28;20404;-81
2024/01/29 01:12:48;;;;;;;35.88;21.40;;;;;;;3.51;73.41;102501.56;5091102;28;20027;-77
2024/01/29 01:15:13;;;;;;;33.63;20.00;;;;;;;3.61;73.42;102518.16;5090676;28;20118;-73
2024/01/29 01:17:40;;;;;;;35.83;22.27;;;;;;;3.68;73.42;102530.44;5089754;28;20107;-78
2024/01/29 01:20:06;;;;;;;33.95;20.98;;;;;;;3.73;73.04;102525.91;5090751;28;20126;-76
2024/01/29 01:22:32;;;;;;;33.28;20.52;;;;;;;3.67;73.30;102526.03;5090679;28;20024;-75
2024/01/29 01:24:57;;;;;;;40.83;22.55;;;;;;;3.63;73.39;102511.06;5091266;28;20028;-77
2024/01/29 01:27:23;;;;;;;30.55;19.30;;;;;;;3.70;73.59;102518.84;5090494;28;20408;-75
2024/01/29 01:29:49;;;;;;;35.05;20.75;;;;;;;3.75;73.15;102537.38;5055082;28;20051;-76
2024/01/29 01:32:15;;;;;;;35.42;20.23;;;;;;;3.73;72.92;102534.75;5090299;28;20035;-74
2024/01/29 01:34:41;;;;;;;30.45;20.00;;;;;;;3.60;73.06;102505.81;5091017;28;20449;-78
2024/01/29 01:37:08;;;;;;;34.05;20.63;;;;;;;3.90;72.60;102541.47;5091747;28;20040;-76
2024/01/29 01:39:34;;;;;;;33.03;19.52;;;;;;;3.84;72.24;102534.50;5092167;28;20031;-75
2024/01/29 01:41:59;;;;;;;30.15;20.52;;;;;;;3.86;71.96;102530.00;5093544;28;20564;-76
2024/01/29 01:44:25;;;;;;;31.67;19.98;;;;;;;4.00;71.71;102543.91;5098897;28;20518;-76
2024/01/29 01:46:51;;;;;;;32.28;19.65;;;;;;;4.05;71.17;102536.66;5093647;28;20031;-74
2024/01/29 01:49:18;;;;;;;32.72;19.80;;;;;;;4.06;71.04;102546.41;5090194;28;20062;-75
2024/01/29 01:51:44;;;;;;;32.13;19.33;;;;;;;4.10;70.76;102540.09;5089644;28;20036;-75
2024/01/29 01:54:11;;;;;;;30.75;19.17;;;;;;;4.10;70.60;102528.53;5089845;28;20074;-75
2024/01/29 01:56:38;;;;;;;28.25;19.27;;;;;;;4.17;70.49;102523.06;5089828;28;20034;-76
2024/01/29 01:59:04;;;;;;;28.85;18.58;;;;;;;4.21;69.87;102524.72;5089625;28;20115;-75
2024/01/29 02:01:30;;;;;;;27.48;17.83;;;;;;;4.08;69.94;102496.66;5089136;28;20024;-74
2024/01/29 02:03:57;;;;;;;29.83;18.77;;;;;;;4.00;69.70;102511.94;5089051;28;20044;-75
2024/01/29 02:06:23;;;;;;;32.45;19.88;;;;;;;4.11;70.23;102531.19;5089407;28;20031;-77
2024/01/29 02:08:48;;;;;;;32.40;20.02;;;;;;;4.07;69.87;102523.28;5089851;28;20028;-77
2024/01/29 02:11:14;;;;;;;29.38;17.33;;;;;;;4.01;69.93;102503.03;5089501;28;20028;-73
2024/01/29 02:13:40;;;;;;;34.30;19.00;;;;;;;4.01;70.08;102523.44;5089737;28;20042;-75
2024/01/29 02:16:05;;;;;;;26.90;18.50;;;;;;;3.78;70.23;102500.06;5090078;28;20035;-74
2024/01/29 02:18:31;;;;;;;30.77;17.90;;;;;;;3.82;70.46;102523.88;5089604;28;20446;-76
2024/01/29 02:20:57;;;;;;;32.28;19.67;;;;;;;3.65;70.79;102498.56;5089845;28;20039;-78
2024/01/29 02:23:22;;;;;;;29.27;19.38;;;;;;;3.76;71.21;102534.66;5089695;28;20032;-75
2024/01/29 02:25:48;;;;;;;32.28;17.95;;;;;;;3.74;70.88;102535.63;5091204;28;20024;-75
2024/01/29 02:28:13;;;;;;;33.03;19.20;;;;;;;3.69;71.46;102533.09;5090591;28;20109;-76
2024/01/29 02:30:39;;;;;;;30.20;18.73;;;;;;;3.62;71.19;102525.25;5092707;28;20039;-75
2024/01/29 02:33:04;;;;;;;29.83;19.58;;;;;;;3.68;71.52;102546.41;5102571;28;20027;-73
2024/01/29 02:35:30;;;;;;;31.77;19.58;;;;;;;3.66;71.68;102533.16;5093911;28;20067;-77
2024/01/29 02:37:55;;;;;;;34.05;19.70;;;;;;;3.69;71.34;102538.41;5089896;28;20115;-75
2024/01/29 02:40:21;;;;;;;27.73;16.95;;;;;;;3.71;71.41;102541.00;5089202;28;20537;-75
2024/01/29 02:42:46;;;;;;;28.95;18.63;;;;;;;3.73;71.15;102539.22;5089137;28;20055;-75
2024/01/29 02:45:12;;;;;;;30.17;19.58;;;;;;;3.66;71.20;102532.28;5088805;28;20419;-76
2024/01/29 02:47:38;;;;;;;31.17;19.83;;;;;;;3.62;71.32;102538.56;5088795;28;20024;-77
2024/01/29 02:50:03;;;;;;;29.67;19.27;;;;;;;3.62;71.36;102535.91;5089181;28;20039;-76
2024/01/29 02:52:29;;;;;;;30.30;18.55;;;;;;;3.53;71.27;102550.28;5088520;28;20145;-76
2024/01/29 02:54:54;;;;;;;28.55;18.50;;;;;;;3.60;70.97;102527.09;5088739;28;20761;-76
2024/01/29 02:57:26;;;;;;;31.00;18.48;;;;;;;3.52;70.90;102521.03;5088574;28;20439;-76
2024/01/29 02:59:52;;;;;;;28.98;17.70;;;;;;;3.65;70.33;102554.44;5088874;28;20027;-75
2024/01/29 03:02:17;;;;;;;31.80;17.70;;;;;;;3.59;70.53;102539.50;5088711;28;20028;-76
2024/01/29 03:04:43;;;;;;;25.52;17.02;;;;;;;3.48;70.51;102522.03;5088830;28;20028;-75
2024/01/29 03:07:09;;;;;;;29.58;16.98;;;;;;;3.77;70.62;102552.41;5088327;28;20112;-76
2024/01/29 03:09:35;;;;;;;29.02;18.33;;;;;;;3.57;70.04;102528.03;5089379;28;20082;-76
2024/01/29 03:12:00;;;;;;;25.00;16.65;;;;;;;3.75;70.16;102553.34;5089305;28;20047;-80
2024/01/29 03:14:26;;;;;;;27.00;16.17;;;;;;;3.77;69.90;102557.72;5089574;28;20479;-75
2024/01/29 03:16:52;;;;;;;26.00;17.30;;;;;;;3.70;69.51;102539.28;5090032;28;20483;-77
2024/01/29 03:19:18;;;;;;;27.15;17.27;;;;;;;3.82;69.18;102549.66;5072002;28;20035;-76
2024/01/29 03:21:44;;;;;;;29.38;17.67;;;;;;;3.84;69.22;102563.78;5097626;28;20020;-75
2024/01/29 03:24:10;;;;;;;25.10;15.43;;;;;;;3.87;69.24;102558.41;5093770;28;20043;-74
2024/01/29 03:26:36;;;;;;;23.50;15.00;;;;;;;3.91;69.09;102554.75;5088226;28;20471;-75
2024/01/29 03:29:01;;;;;;;22.98;16.20;;;;;;;3.93;68.62;102558.25;5069909;28;20047;-76
2024/01/29 03:31:27;;;;;;;26.25;16.30;;;;;;;4.00;68.41;102564.31;5088496;28;20436;-75
2024/01/29 03:33:52;;;;;;;29.13;17.45;;;;;;;3.99;68.45;102550.13;5087670;28;20157;-79
2024/01/29 03:36:18;;;;;;;26.70;16.10;;;;;;;3.97;68.10;102540.44;5088333;28;20059;-76
2024/01/29 03:38:43;;;;;;;35.30;16.60;;;;;;;4.07;67.53;102558.78;5087578;28;20040;-76
2024/01/29 03:41:09;;;;;;;33.15;16.42;;;;;;;4.03;67.98;102558.91;5087953;28;20110;-76
2024/01/29 03:43:34;;;;;;;29.30;15.75;;;;;;;3.96;67.50;102544.00;5086181;28;20120;-75
2024/01/29 03:46:00;;;;;;;25.05;15.65;;;;;;;4.17;67.25;102575.44;5087921;28;20458;-75
2024/01/29 03:48:26;;;;;;;28.20;17.38;;;;;;;4.02;66.53;102551.84;5087801;28;20036;-78
2024/01/29 03:50:51;;;;;;;22.70;14.55;;;;;;;4.12;66.71;102559.59;5087816;28;20028;-77
2024/01/29 03:53:17;;;;;;;19.85;14.07;;;;;;;3.89;65.90;102545.91;5069766;28;20490;-76
2024/01/29 03:55:43;;;;;;;25.60;15.60;;;;;;;3.91;65.83;102546.78;5087717;28;20115;-75
2024/01/29 03:58:08;;;;;;;21.27;14.15;;;;;;;3.97;65.99;102586.56;5087061;28;20054;-76
2024/01/29 04:00:34;;;;;;;26.27;14.88;;;;;;;3.94;66.07;102580.44;5088035;28;20059;-76
2024/01/29 04:03:03;;;;;;;23.55;15.35;;;;;;;3.95;66.23;102583.03;5088868;28;20023;-76
2024/01/29 04:05:29;;;;;;;21.73;14.50;;;;;;;3.92;65.88;102577.78;5089303;28;20407;-75
2024/01/29 04:07:54;;;;;;;25.13;16.92;;;;;;;3.99;66.08;102594.50;5088634;28;20024;-75
2024/01/29 04:10:20;;;;;;;21.48;14.88;;;;;;;4.07;65.68;102587.19;5095659;28;20662;-75
2024/01/29 04:12:46;;;;;;;21.63;14.13;;;;;;;3.78;64.52;102547.97;5094272;28;20059;-75
2024/01/29 04:15:12;;;;;;;24.88;14.73;;;;;;;3.85;63.77;102566.41;5069725;28;20108;-77
2024/01/29 04:17:37;;;;;;;19.90;13.48;;;;;;;3.82;64.90;102603.72;5087381;28;20035;-74
2024/01/29 04:20:05;;;;;;;24.23;14.82;;;;;;;3.75;64.83;102585.28;5089238;28;20039;-75
2024/01/29 04:22:32;;;;;;;19.15;12.90;;;;;;;3.67;64.97;102600.56;5070082;28;20055;-74
2024/01/29 04:24:58;;;;;;;22.48;13.95;;;;;;;3.60;64.86;102580.28;5067910;28;20051;-74
2024/01/29 04:27:24;;;;;;;23.00;13.88;;;;;;;3.80;64.79;102615.31;5071281;28;20099;-75
2024/01/29 04:29:50;;;;;;;21.20;11.98;;;;;;;3.85;64.02;102610.81;5071734;28;20119;-74
2024/01/29 04:32:15;;;;;;;24.25;13.20;;;;;;;3.81;64.43;102619.75;5071678;28;20048;-75
2024/01/29 04:34:41;;;;;;;17.75;12.45;;;;;;;3.90;64.12;102627.53;5072144;28;20040;-75
2024/01/29 04:37:06;;;;;;;18.73;10.95;;;;;;;3.79;63.57;102618.91;5088545;28;20044;-74
2024/01/29 04:39:32;;;;;;;20.42;12.40;;;;;;;3.84;63.44;102619.69;5073096;28;20131;-75
2024/01/29 04:41:57;;;;;;;23.63;14.80;;;;;;;3.84;63.32;102623.22;5091253;28;20108;-75
2024/01/29 04:44:23;;;;;;;21.42;13.07;;;;;;;3.91;63.44;102631.97;5091265;28;20044;-75
2024/01/29 04:46:49;;;;;;;19.00;13.77;;;;;;;3.86;63.69;102628.50;5085444;28;20055;-75
2024/01/29 04:49:14;;;;;;;19.83;12.52;;;;;;;3.69;63.19;102596.06;5084168;28;20110;-76
2024/01/29 04:51:40;;;;;;;22.70;14.40;;;;;;;3.89;63.45;102620.44;5092282;28;20643;-74
2024/01/29 04:54:05;;;;;;;35.40;16.30;;;;;;;3.88;63.54;102645.34;5092419;28;20027;-76
2024/01/29 04:56:31;;;;;;;21.20;12.65;;;;;;;3.83;63.12;102631.22;5091965;28;20545;-75
2024/01/29 04:58:56;;;;;;;21.08;12.95;;;;;;;3.87;62.56;102627.59;5095359;28;20032;-77
2024/01/29 05:01:22;;;;;;;28.13;14.05;;;;;;;3.93;62.67;102624.81;5101088;28;20050;-74
2024/01/29 05:03:47;;;;;;;18.58;11.65;;;;;;;3.89;62.94;102625.78;5092499;28;20036;-77
2024/01/29 05:06:13;;;;;;;21.48;13.75;;;;;;;3.94;63.09;102625.69;5091129;28;20405;-74
2024/01/29 05:08:39;;;;;;;20.27;13.38;;;;;;;3.92;62.80;102630.16;5090557;28;20120;-77
2024/01/29 05:11:05;;;;;;;27.60;13.38;;;;;;;3.91;62.82;102623.97;5090987;28;20116;-76
2024/01/29 05:13:30;;;;;;;22.33;13.38;;;;;;;3.95;63.15;102630.06;5088593;28;20463;-77
2024/01/29 05:15:56;;;;;;;28.27;14.48;;;;;;;3.83;62.77;102625.91;5072323;28;20036;-75
2024/01/29 05:18:21;;;;;;;17.70;12.98;;;;;;;3.50;62.92;102568.97;5090662;28;20471;-79
2024/01/29 05:20:47;;;;;;;24.38;12.48;;;;;;;3.84;63.38;102659.59;5072566;28;20419;-75
2024/01/29 05:23:16;;;;;;;25.45;13.90;;;;;;;3.70;63.13;102643.06;5090690;28;20032;-77
2024/01/29 05:25:41;;;;;;;27.63;14.63;;;;;;;3.64;63.48;102648.50;5090528;28;20032;-75
2024/01/29 05:28:07;;;;;;;25.77;14.85;;;;;;;3.41;63.64;102613.50;5090362;28;20028;-79
2024/01/29 05:30:32;;;;;;;33.20;15.25;;;;;;;3.49;63.45;102615.09;5090177;28;20028;-77
2024/01/29 05:32:58;;;;;;;23.65;15.20;;;;;;;3.67;63.77;102614.72;5072728;28;20111;-75
2024/01/29 05:35:23;;;;;;;40.20;14.27;;;;;;;3.52;63.66;102620.34;5090185;28;20040;-76
2024/01/29 05:37:49;;;;;;;43.22;15.02;;;;;;;3.63;63.49;102623.69;5090803;28;20425;-76
2024/01/29 05:40:14;;;;;;;25.00;14.38;;;;;;;3.68;63.26;102636.88;5091239;28;20034;-79
2024/01/29 05:42:40;;;;;;;26.13;15.15;;;;;;;3.80;63.40;102636.63;5092811;28;20055;-74
2024/01/29 05:45:06;;;;;;;23.92;14.75;;;;;;;3.81;63.24;102638.38;5091864;28;20482;-76
2024/01/29 05:47:32;;;;;;;35.00;18.30;;;;;;;3.72;63.35;102627.94;5092736;28;20110;-77
2024/01/29 05:49:58;;;;;;;32.00;14.98;;;;;;;3.78;62.98;102638.44;5083596;28;20028;-77
2024/01/29 05:52:24;;;;;;;22.70;14.95;;;;;;;3.79;63.53;102645.53;5092494;28;20032;-77
2024/01/29 05:54:50;;;;;;;43.80;19.80;;;;;;;3.84;63.43;102648.97;5090073;28;20089;-77
2024/01/29 05:57:17;;;;;;;28.98;15.55;;;;;;;3.89;63.19;102641.75;5075806;28;20058;-78
2024/01/29 05:59:42;;;;;;;21.98;14.23;;;;;;;3.91;62.82;102645.25;5079541;28;20031;-78
2024/01/29 06:02:08;;;;;;;22.48;14.15;;;;;;;4.03;62.46;102666.31;5089153;28;20032;-75
2024/01/29 06:04:34;;;;;;;22.73;14.07;;;;;;;3.99;62.69;102645.97;5089172;28;20058;-77
2024/01/29 06:06:59;;;;;;;38.05;16.50;;;;;;;4.07;62.91;102662.63;5089040;28;20032;-73
2024/01/29 06:09:25;;;;;;;38.80;17.08;;;;;;;4.04;63.22;102662.69;5070816;28;20047;-75
2024/01/29 06:11:50;;;;;;;29.63;14.90;;;;;;;4.09;63.43;102655.50;5091048;28;20024;-72
2024/01/29 06:14:17;;;;;;;29.52;15.77;;;;;;;3.94;63.83;102637.22;5092617;28;20024;-74
2024/01/29 06:16:45;;;;;;;26.05;16.17;;;;;;;4.16;63.62;102667.75;5089355;28;20739;-75
2024/01/29 06:19:15;;;;;;;31.90;17.27;;;;;;;4.01;63.63;102633.47;5088644;28;20106;-76
2024/01/29 06:21:46;;;;;;;35.78;15.85;;;;;;;4.09;63.90;102668.81;5088978;28;20028;-80
2024/01/29 06:24:12;;;;;;;42.33;16.73;;;;;;;4.15;63.96;102666.03;5089536;28;20027;-75
2024/01/29 06:26:38;;;;;;;35.80;18.48;;;;;;;4.18;64.08;102675.72;5089533;28;20053;-72
2024/01/29 06:29:04;;;;;;;29.13;17.65;;;;;;;4.10;64.17;102651.03;5088780;28;20411;-75
2024/01/29 06:31:29;;;;;;;29.00;17.40;;;;;;;4.24;64.02;102684.47;5074848;27;20044;-72
2024/01/29 06:33:56;;;;;;;28.80;16.60;;;;;;;4.21;64.71;102665.00;5088964;28;20535;-73
2024/01/29 06:36:22;;;;;;;30.17;17.95;;;;;;;4.13;65.03;102670.50;5087273;28;20043;-78
2024/01/29 06:38:47;;;;;;;42.67;18.23;;;;;;;4.10;65.47;102661.69;5083566;28;20543;-77
2024/01/29 06:41:23;;;;;;;29.52;17.17;;;;;;;4.16;65.49;102664.25;5088244;28;20093;-72
2024/01/29 06:43:54;;;;;;;39.55;17.38;;;;;;;4.04;65.53;102638.75;5079235;28;20089;-78
2024/01/29 06:46:20;;;;;;;27.67;17.55;;;;;;;4.15;65.33;102655.38;5083841;28;20039;-73
2024/01/29 06:48:46;;;;;;;36.20;17.88;;;;;;;4.24;65.04;102663.16;5087752;28;20039;-73
2024/01/29 06:51:12;;;;;;;35.67;20.23;;;;;;;4.02;65.58;102661.00;5037371;28;20036;-77
2024/01/29 06:53:37;;;;;;;44.15;19.25;;;;;;;4.14;66.01;102664.25;5087024;28;20078;-73
2024/01/29 06:56:04;;;;;;;33.97;19.60;;;;;;;4.15;65.66;102659.81;5088292;28;20055;-73
2024/01/29 06:58:37;;;;;;;32.55;18.52;;;;;;;4.11;65.51;102653.69;5071971;28;20024;-75
2024/01/29 07:01:05;;;;;;;36.05;17.92;;;;;;;4.16;65.76;102677.56;5100775;28;20415;-73
2024/01/29 07:03:31;;;;;;;26.83;16.92;;;;;;;4.20;65.97;102677.44;5107797;28;20028;-76
2024/01/29 07:05:57;;;;;;;29.00;18.63;;;;;;;4.21;66.13;102663.22;5078487;28;20032;-81
2024/01/29 07:08:26;;;;;;;33.40;17.67;;;;;;;4.12;66.03;102650.13;5084710;28;20035;-75
2024/01/29 07:10:51;;;;;;;25.88;17.52;;;;;;;4.37;65.70;102671.75;5087860;28;20272;-74
2024/01/29 07:13:17;;;;;;;35.17;19.00;;;;;;;4.34;65.85;102674.47;5072944;28;20451;-75
2024/01/29 07:15:42;;;;;;;33.97;18.25;;;;;;;4.32;65.86;102658.50;5087494;28;20024;-74
2024/01/29 07:18:08;;;;;;;42.92;18.80;;;;;;;4.37;66.12;102661.09;5088925;28;20028;-75
2024/01/29 07:20:45;;;;;;;36.50;19.38;;;;;;;4.36;65.42;102668.19;5075084;28;20426;-74
2024/01/29 07:23:10;;;;;;;36.58;21.80;;;;;;;4.33;66.00;102681.59;5089185;28;20027;-73
2024/01/29 07:25:38;;;;;;;37.00;22.65;;;;;;;4.23;65.74;102679.16;5085002;28;20926;-78
2024/01/29 07:28:04;;;;;;;32.67;18.65;;;;;;;4.23;65.82;102698.69;5083535;28;20027;-76
2024/01/29 07:30:30;;;;;;;29.35;17.67;;;;;;;4.17;66.32;102700.59;5087551;28;20073;-74
2024/01/29 07:32:57;;;;;;;27.85;18.52;;;;;;;3.99;66.71;102685.91;5069446;28;20020;-75
2024/01/29 07:35:23;;;;;;;35.25;20.50;;;;;;;4.09;67.36;102703.44;5070244;28;20415;-75
2024/01/29 07:37:48;;;;;;;34.15;20.67;;;;;;;4.22;67.63;102715.56;5087855;28;20103;-74
2024/01/29 07:40:14;;;;;;;38.58;20.17;;;;;;;4.36;66.98;102724.16;5085932;28;20032;-79
2024/01/29 07:42:40;;;;;;;39.33;22.13;;;;;;;4.49;66.63;102729.19;5073222;28;20035;-74
2024/01/29 07:45:06;;;;;;;29.88;18.90;;;;;;;4.55;66.07;102723.72;5086837;28;20055;-76
2024/01/29 07:47:31;;;;;;;31.35;18.02;;;;;;;4.61;66.00;102734.25;5080469;28;20539;-79
2024/01/29 07:49:57;;;;;;;28.02;19.08;;;;;;;4.61;65.91;102724.47;5078466;28;20129;-75
2024/01/29 07:52:22;;;;;;;40.45;19.88;;;;;;;4.61;66.00;102739.56;5087313;28;20040;-74
2024/01/29 07:54:48;;;;;;;30.05;20.25;;;;;;;4.67;65.63;102734.97;5071648;28;20841;-78
2024/01/29 07:57:13;;;;;;;43.53;21.30;;;;;;;4.78;65.36;102732.03;5086292;28;20471;-73
2024/01/29 07:59:40;;;;;;;32.22;20.83;;;;;;;4.66;65.50;102743.00;5088430;28;20102;-75
2024/01/29 08:02:06;;;;;;;32.53;19.25;;;;;;;4.80;65.40;102754.22;5084877;28;20020;-78
2024/01/29 08:04:32;;;;;;;36.90;20.83;;;;;;;4.88;65.26;102754.91;5090976;28;20491;-73
2024/01/29 08:06:58;;;;;;;36.75;20.13;;;;;;;4.86;64.99;102759.41;5088399;28;20024;-72
2024/01/29 08:09:26;;;;;;;34.72;20.13;;;;;;;4.85;65.51;102749.66;5037206;28;20046;-75
2024/01/29 08:11:52;;;;;;;39.78;18.23;;;;;;;4.95;64.59;102737.88;5038907;28;20134;-76
2024/01/29 08:14:17;;;;;;;38.80;19.63;;;;;;;5.02;64.62;102744.78;5093239;28;20028;-75
2024/01/29 08:16:43;;;;;;;35.20;20.35;;;;;;;5.32;64.48;102773.34;5074981;28;20134;-77
2024/01/29 08:19:09;;;;;;;41.70;21.52;;;;;;;5.38;63.68;102773.19;5070022;28;20028;-77
2024/01/29 08:21:35;;;;;;;49.60;23.70;;;;;;;5.36;63.82;102752.81;5069439;28;20431;-78
2024/01/29 08:24:02;;;;;;;36.30;22.05;;;;;;;5.57;63.54;102783.38;5070852;28;20031;-76
2024/01/29 08:26:28;;;;;;;33.40;18.33;;;;;;;5.71;62.93;102781.25;5086815;28;20028;-74
2024/01/29 08:28:53;;;;;;;39.63;19.95;;;;;;;5.61;62.50;102782.41;5086859;28;20034;-77
2024/01/29 08:31:19;;;;;;;31.40;19.42;;;;;;;5.26;62.63;102768.16;5070468;28;20032;-76
2024/01/29 08:33:44;;;;;;;40.55;22.00;;;;;;;5.47;63.14;102786.31;5086707;28;20444;-77
2024/01/29 08:36:10;;;;;;;43.97;22.40;;;;;;;5.67;62.75;102795.59;5086811;28;20048;-73
2024/01/29 08:38:36;;;;;;;37.33;23.13;;;;;;;5.61;62.43;102787.75;5019311;28;20059;-75
2024/01/29 08:41:02;;;;;;;36.17;21.52;;;;;;;5.52;62.67;102777.31;5072898;28;20020;-73
2024/01/29 08:43:27;;;;;;;59.13;28.58;;;;;;;5.71;62.50;102806.16;5063477;28;20036;-78
2024/01/29 08:45:53;;;;;;;45.35;22.35;;;;;;;5.55;62.29;102779.91;5077022;28;20403;-75
2024/01/29 08:48:18;;;;;;;49.88;24.08;;;;;;;5.67;62.54;102785.78;5087035;28;20059;-75
2024/01/29 08:50:44;;;;;;;38.60;22.55;;;;;;;5.77;62.03;102814.00;5087593;28;20037;-75
2024/01/29 08:53:09;;;;;;;37.90;21.95;;;;;;;5.63;62.10;102810.81;5073573;28;20039;-74
2024/01/29 08:55:35;;;;;;;52.00;22.40;;;;;;;5.47;62.21;102791.63;5088846;28;20020;-75
2024/01/29 08:58:00;;;;;;;41.92;21.77;;;;;;;5.52;62.05;102785.31;5069097;28;20182;-75
2024/01/29 09:00:26;;;;;;;39.08;22.77;;;;;;;5.69;62.33;102815.13;5068152;28;20092;-79
2024/01/29 09:02:51;;;;;;;45.88;23.48;;;;;;;5.37;62.78;102798.16;5074360;28;20032;-74
2024/01/29 09:05:16;;;;;;;51.42;24.75;;;;;;;5.48;62.94;102803.19;5073484;28;20028;-76
2024/01/29 09:07:42;;;;;;;40.33;21.20;;;;;;;5.61;63.01;102801.09;5077557;28;20031;-76
2024/01/29 09:10:08;;;;;;;42.88;21.73;;;;;;;5.63;62.84;102777.88;5079557;28;20024;-77
2024/01/29 09:12:34;;;;;;;41.20;21.10;;;;;;;5.89;62.42;102808.38;5089205;28;20027;-76
2024/01/29 09:15:02;;;;;;;38.05;22.40;;;;;;;5.89;61.85;102797.69;5089832;28;20434;-74
2024/01/29 09:17:28;;;;;;;34.70;19.80;;;;;;;6.04;62.33;102807.06;5090794;28;20032;-75
2024/01/29 09:19:53;;;;;;;37.47;21.33;;;;;;;5.98;61.71;102778.75;5091160;28;20035;-76
2024/01/29 09:22:19;;;;;;;32.47;19.80;;;;;;;5.99;61.47;102777.78;5090797;28;20051;-76
2024/01/29 09:24:44;;;;;;;43.75;21.27;;;;;;;6.02;61.04;102782.19;5090201;28;20035;-78
2024/01/29 09:27:10;;;;;;;31.98;20.17;;;;;;;6.06;61.25;102777.63;5090355;28;20020;-79
2024/01/29 09:29:35;;;;;;;38.08;22.73;;;;;;;6.00;61.06;102789.34;5090641;28;20024;-73
2024/01/29 09:32:01;;;;;;;34.58;21.17;;;;;;;5.96;61.03;102777.88;5090514;28;20169;-77
2024/01/29 09:34:27;;;;;;;35.28;20.10;;;;;;;5.93;61.29;102785.13;5090155;28;20028;-75
2024/01/29 09:36:53;;;;;;;30.20;20.40;;;;;;;5.97;61.41;102789.44;5089821;28;20123;-76
2024/01/29 09:39:19;;;;;;;33.22;20.02;;;;;;;6.00;61.41;102778.69;5090572;28;20124;-74
2024/01/29 09:41:46;;;;;;;29.98;19.38;;;;;;;5.93;60.98;102779.78;5090639;28;20043;-75
2024/01/29 09:44:12;;;;;;;32.35;18.35;;;;;;;5.86;61.47;102780.88;5092060;28;20024;-75
2024/01/29 09:46:39;;;;;;;76.22;31.80;;;;;;;5.85;61.77;102771.06;5091174;28;20055;-74
2024/01/29 09:49:06;;;;;;;29.30;18.63;;;;;;;5.81;61.60;102774.75;5092361;28;20039;-75
2024/01/29 09:51:33;;;;;;;45.40;25.42;;;;;;;5.90;61.56;102780.72;5094207;28;20114;-76
2024/01/29 09:54:03;;;;;;;41.30;20.58;;;;;;;5.96;61.77;102780.56;5090772;28;20032;-77
2024/01/29 09:56:29;;;;;;;41.35;20.70;;;;;;;5.99;61.56;102777.78;5091075;28;20039;-78
2024/01/29 09:58:55;;;;;;;43.78;19.60;;;;;;;6.02;61.43;102768.84;5089711;28;20028;-76
2024/01/29 10:01:22;;;;;;;28.42;17.15;;;;;;;6.11;61.04;102781.94;5089007;28;20032;-76
2024/01/29 10:03:48;;;;;;;35.00;17.70;;;;;;;6.02;60.68;102758.16;5089698;28;20043;-76
2024/01/29 10:06:14;;;;;;;28.23;18.00;;;;;;;5.91;60.97;102757.56;5088960;28;20032;-75
2024/01/29 10:08:40;;;;;;;39.33;20.67;;;;;;;6.02;61.14;102771.50;5089411;28;20419;-75
2024/01/29 10:11:07;;;;;;;27.52;18.10;;;;;;;6.01;61.11;102785.78;5089316;28;20103;-74
2024/01/29 10:13:33;;;;;;;32.03;18.80;;;;;;;5.60;61.68;102799.31;5089845;28;20028;-75
2024/01/29 10:15:59;;;;;;;43.58;18.25;;;;;;;5.32;62.16;102752.00;5069666;28;20759;-73
2024/01/29 10:18:24;;;;;;;36.42;18.42;;;;;;;5.43;62.12;102765.97;5086696;28;20114;-73
2024/01/29 10:21:06;;;;;;;44.70;20.88;;;;;;;5.60;62.55;102777.97;5086883;28;20162;-72
2024/01/29 10:23:32;;;;;;;31.75;19.70;;;;;;;5.50;62.60;102762.19;5043685;28;20044;-73
2024/01/29 10:25:59;;;;;;;39.13;20.42;;;;;;;5.59;62.66;102771.78;5045877;28;20115;-74
2024/01/29 10:28:26;;;;;;;33.20;20.13;;;;;;;5.69;62.92;102761.75;5046169;28;20041;-75
2024/01/29 10:30:56;;;;;;;40.38;19.60;;;;;;;5.88;62.58;102774.56;5046464;28;20033;-73
2024/01/29 10:33:24;;;;;;;31.92;18.27;;;;;;;5.94;61.76;102773.50;5046337;28;20512;-74
2024/01/29 10:35:50;;;;;;;38.72;20.42;;;;;;;5.96;61.83;102780.56;5045321;28;20079;-74
2024/01/29 10:38:22;;;;;;;44.88;19.83;;;;;;;6.07;61.73;102779.38;5055531;28;20603;-74
2024/01/29 10:40:48;;;;;;;;;;;;;;;6.02;61.86;102777.72;5050239;28;20081;-78
2024/01/29 10:43:21;;;;;;;42.95;21.73;;;;;;;6.19;61.92;102774.56;5046019;28;19970;-75
2024/01/29 10:45:50;;;;;;;43.83;20.13;;;;;;;6.17;61.55;102770.19;5045639;28;20040;-75
2024/01/29 10:48:22;;;;;;;30.60;18.42;;;;;;;6.24;61.47;102764.63;5018324;28;20205;-75
2024/01/29 10:50:49;;;;;;;32.15;19.02;;;;;;;6.17;61.07;102754.16;5030193;28;20052;-76
2024/01/29 10:53:17;;;;;;;29.13;19.52;;;;;;;6.16;60.77;102747.94;5028788;28;20044;-76
2024/01/29 10:55:44;;;;;;;36.03;18.63;;;;;;;6.28;60.85;102752.91;5076078;28;20043;-78
2024/01/29 10:58:12;;;;;;;31.48;18.67;;;;;;;6.36;60.82;102758.91;5065051;28;20197;-73
2024/01/29 11:00:41;;;;;;;32.40;20.25;;;;;;;6.44;60.21;102770.25;5088044;28;20082;-77
2024/01/29 11:03:09;;;;;;;32.72;18.48;;;;;;;6.29;60.17;102748.47;5073308;28;20716;-78
2024/01/29 11:05:35;;;;;;;36.00;19.88;;;;;;;6.18;60.61;102735.41;5087938;28;20038;-75
2024/01/29 11:08:04;;;;;;;47.22;24.50;;;;;;;6.32;60.47;102757.25;5088136;28;20035;-76
2024/01/29 11:10:32;;;;;;;33.95;21.77;;;;;;;6.24;60.45;102745.91;5080017;28;20465;-80
2024/01/29 11:13:00;;;;;;;38.78;21.65;;;;;;;6.30;60.16;102743.06;5081880;28;20032;-76